ซูริก, ประเทศสวิตเซอร์แลนด์

08:58 PM CEST วัน เมษายน 21, 2015 (GMT +0200)
Dubendorf Mil | | Change Station
CLOSE
Current Station
Airport
Location: Duebendorf,
Elevation: 1470 ft
Nearby Weather Stations

Elev 1470 ft 47.40 °N, 8.65 °E | Updated 8 minutes ago

Clear
ท้องฟ้าแจ่มใส
59 ฟาเรนไฮน์
Feels Like 59 ฟาเรนไฮน์
N
2
ลม ความผันแปร ลม from ความผันแปร

วันนี้
High -- | Low -- ฟาเรนไฮน์
--% Chance of Precip.
Yesterday
High -- | Low -- ฟาเรนไฮน์
Precip. -- นิ้ว
6:27 AM 8:22 PM
เดือนเสี้ยว, 12% visible
ความดัน 30.33 นิ้ว
ทัศนวิสัย 6.2 ไมล์
เมฆ
อุณหภูมิที่อากาศอาจจับตัวเป็นหยาดน้ำค้าง 36 ฟาเรนไฮน์
ความชื้น 42%
Rainfall 0.00 นิ้ว
Snow Depth Not available.
UV Not available.
Pollen Not available.
Air Quality Not available.
Flu Activity Not available.
METAR LSMD 211850Z AUTO VRB02KT 9999NDV NCD 15/02 Q1027 RMK BLU

More Conditions Fewer Conditions

ความดัน 30.33 นิ้ว
ทัศนวิสัย 6.2 ไมล์
เมฆ
อุณหภูมิที่อากาศอาจจับตัวเป็นหยาดน้ำค้าง 36 ฟาเรนไฮน์
ความชื้น 42%
Rainfall 0.00 นิ้ว
Snow Depth Not available.
UV Not available.
Pollen Not available.
Air Quality Not available.
Flu Activity Not available.
METAR LSMD 211850Z AUTO VRB02KT 9999NDV NCD 15/02 Q1027 RMK BLU

More Conditions Fewer Conditions

10-Day Weather Forecast

Almanac

ดาราศาสตร์

Apr. 21, 2015 Rise Set
Actual Time
Civil Twilight
Nautical Twilight
Astronomical Twilight
Moon
Length Of Visible Light
ความยาวของวัน
Tomorrow will be .
, % of the Moon is Illuminated

Today's Extremes

Country Highs Country Lows

Community

WunderPhotos

Upload Photos

1,815,487 photos uploaded!

WunderBlogs® & News

Nearby

Air Quality

  Air Quality AQ Index Pollutant
Not available.

Snow Depth

Station Depth Elevation

Earthquake Activity

City Distance Mag. Time & Date
Minimum magnitude displayed is 2.5.

Coastal Water Temperatures

สถานที่ อุณหภูมิ

Stations

Nearby Weather Stations

Station Location Temp ลมหนาว อุณหภูมิที่อากาศอาจจับตัวเป็นหยาดน้ำค้าง ความชื้น ลม Precip. Elev ปรับปรุงล่าสุด Type